Time;durP1;ratioP1;P1;durP2;ratioP2;P2;SDS_P1;SDS_P2;PMS_P1;PMS_P2;Temp;Humidity;BMP_temperature;BMP_pressure;BME280_temperature;BME280_humidity;BME280_pressure;Samples;Min_cycle;Max_cycle;Signal;HPM_P1;HPM_P2
2023/05/30 00:02:22;;;;;;;25.63;4.70;;;;;;;;;;5032259;28;20059;-72
2023/05/30 00:04:49;;;;;;;19.38;4.20;;;;;;;;;;5029585;28;20085;-72
2023/05/30 00:07:17;;;;;;;16.48;3.80;;;;;;;;;;5030524;28;20566;-72
2023/05/30 00:09:43;;;;;;;19.27;4.05;;;;;;;;;;5033563;28;20464;-72
2023/05/30 00:12:11;;;;;;;17.70;4.10;;;;;;;;;;5034185;28;20038;-72
2023/05/30 00:14:38;;;;;;;16.67;3.95;;;;;;;;;;5030790;28;20073;-72
2023/05/30 00:17:05;;;;;;;18.35;3.55;;;;;;;;;;5024582;28;20049;-72
2023/05/30 00:19:31;;;;;;;17.23;5.28;;;;;;;;;;5035679;28;20056;-72
2023/05/30 00:21:58;;;;;;;18.73;3.95;;;;;;;;;;5035937;28;20048;-72
2023/05/30 00:24:25;;;;;;;18.25;4.20;;;;;;;;;;5035301;28;20045;-72
2023/05/30 00:26:52;;;;;;;17.83;4.20;;;;;;;;;;5034824;28;20045;-72
2023/05/30 00:29:18;;;;;;;17.48;3.70;;;;;;;;;;5035038;28;20045;-72
2023/05/30 00:31:44;;;;;;;19.52;4.13;;;;;;;;;;5034074;28;20041;-72
2023/05/30 00:34:10;;;;;;;18.08;4.47;;;;;;;;;;5034261;28;20084;-72
2023/05/30 00:36:36;;;;;;;14.05;3.83;;;;;;;;;;5034140;28;20458;-72
2023/05/30 00:39:02;;;;;;;17.63;4.32;;;;;;;;;;5035576;28;20048;-72
2023/05/30 00:41:28;;;;;;;15.48;4.30;;;;;;;;;;5035664;28;20056;-72
2023/05/30 00:43:55;;;;;;;13.40;3.70;;;;;;;;;;5035646;28;20045;-72
2023/05/30 00:46:23;;;;;;;16.00;4.32;;;;;;;;;;5035549;28;20062;-72
2023/05/30 00:48:49;;;;;;;16.42;4.32;;;;;;;;;;4998170;28;20050;-72
2023/05/30 00:51:17;;;;;;;17.13;4.18;;;;;;;;;;5028387;28;20038;-71
2023/05/30 00:53:43;;;;;;;14.13;3.80;;;;;;;;;;5035123;28;20526;-72
2023/05/30 00:56:12;;;;;;;16.50;3.72;;;;;;;;;;5035367;28;20133;-72
2023/05/30 00:58:39;;;;;;;16.10;4.15;;;;;;;;;;5035350;28;20049;-72
2023/05/30 01:01:06;;;;;;;16.85;4.20;;;;;;;;;;5035306;28;20400;-72
2023/05/30 01:03:32;;;;;;;14.77;4.03;;;;;;;;;;5017384;28;20052;-72
2023/05/30 01:06:03;;;;;;;15.20;4.47;;;;;;;;;;5034195;28;20510;-72
2023/05/30 01:08:29;;;;;;;14.67;4.37;;;;;;;;;;5035261;28;20180;-72
2023/05/30 01:11:06;;;;;;;13.15;3.75;;;;;;;;;;5035100;28;20091;-72
2023/05/30 01:13:38;;;;;;;14.68;4.10;;;;;;;;;;5035060;28;20049;-72
2023/05/30 01:16:04;;;;;;;14.35;4.50;;;;;;;;;;5017254;28;20049;-72
2023/05/30 01:18:30;;;;;;;11.88;3.53;;;;;;;;;;5020479;28;20042;-72
2023/05/30 01:20:59;;;;;;;17.00;4.30;;;;;;;;;;5020451;28;20099;-72
2023/05/30 01:23:37;;;;;;;17.13;3.90;;;;;;;;;;5042228;28;20144;-71
2023/05/30 01:26:06;;;;;;;18.67;4.30;;;;;;;;;;5047180;28;20041;-72
2023/05/30 01:28:33;;;;;;;14.93;4.07;;;;;;;;;;5034646;28;20045;-72
2023/05/30 01:31:00;;;;;;;13.75;3.83;;;;;;;;;;5023683;28;20073;-72
2023/05/30 01:33:27;;;;;;;16.60;4.38;;;;;;;;;;5015011;28;20050;-72
2023/05/30 01:35:53;;;;;;;16.80;4.10;;;;;;;;;;5014843;28;20057;-72
2023/05/30 01:38:20;;;;;;;18.27;4.30;;;;;;;;;;5014833;28;20046;-72
2023/05/30 01:40:57;;;;;;;17.77;4.47;;;;;;;;;;5015328;28;20374;-72
2023/05/30 01:43:40;;;;;;;13.55;4.18;;;;;;;;;;5024820;28;20045;-71
2023/05/30 01:46:15;;;;;;;14.48;4.68;;;;;;;;;;5034368;28;20083;-72
2023/05/30 01:49:00;;;;;;;14.38;4.25;;;;;;;;;;5032940;28;20037;-71
2023/05/30 01:51:35;;;;;;;15.95;4.35;;;;;;;;;;5032770;28;20045;-72
2023/05/30 01:54:03;;;;;;;18.33;4.35;;;;;;;;;;5033346;28;20410;-71
2023/05/30 01:56:30;;;;;;;14.43;4.40;;;;;;;;;;5015366;28;20041;-71
2023/05/30 01:58:56;;;;;;;15.73;4.00;;;;;;;;;;5025522;28;20042;-72
2023/05/30 02:01:25;;;;;;;16.25;4.82;;;;;;;;;;5033623;28;20091;-72
2023/05/30 02:03:51;;;;;;;16.63;4.10;;;;;;;;;;5033826;28;20044;-72
2023/05/30 02:06:17;;;;;;;17.45;4.50;;;;;;;;;;5033423;28;20041;-72
2023/05/30 02:08:43;;;;;;;17.00;4.32;;;;;;;;;;5032975;28;20099;-71
2023/05/30 02:11:10;;;;;;;18.75;4.20;;;;;;;;;;5032577;28;20049;-72
2023/05/30 02:13:36;;;;;;;13.05;4.38;;;;;;;;;;5032773;28;20060;-72
2023/05/30 02:16:02;;;;;;;16.13;4.25;;;;;;;;;;5033909;28;20050;-72
2023/05/30 02:18:28;;;;;;;14.00;4.63;;;;;;;;;;5029389;28;20056;-72
2023/05/30 02:20:55;;;;;;;17.45;4.25;;;;;;;;;;5031063;28;20041;-71
2023/05/30 02:23:21;;;;;;;14.75;4.32;;;;;;;;;;5032819;28;20045;-71
2023/05/30 02:25:47;;;;;;;13.77;3.90;;;;;;;;;;5033237;28;20052;-72
2023/05/30 02:28:13;;;;;;;14.80;3.95;;;;;;;;;;5033153;28;20450;-72
2023/05/30 02:30:39;;;;;;;13.23;3.28;;;;;;;;;;5033234;28;20045;-72
2023/05/30 02:33:05;;;;;;;15.45;3.70;;;;;;;;;;5032325;28;20038;-72
2023/05/30 02:35:31;;;;;;;13.35;3.63;;;;;;;;;;5033271;28;20073;-72
2023/05/30 02:37:57;;;;;;;12.93;3.45;;;;;;;;;;5031891;28;20038;-72
2023/05/30 02:40:24;;;;;;;16.70;4.05;;;;;;;;;;5031446;28;20442;-72
2023/05/30 02:42:50;;;;;;;15.68;3.67;;;;;;;;;;5031841;28;20483;-72
2023/05/30 02:45:16;;;;;;;15.73;3.88;;;;;;;;;;5031593;28;20518;-72
2023/05/30 02:47:42;;;;;;;15.10;3.75;;;;;;;;;;5029974;28;20486;-72
2023/05/30 02:50:08;;;;;;;15.07;3.67;;;;;;;;;;5031911;28;20484;-71
2023/05/30 02:52:35;;;;;;;15.43;3.60;;;;;;;;;;5031549;28;20042;-72
2023/05/30 02:55:01;;;;;;;15.73;3.53;;;;;;;;;;5032667;28;20045;-71
2023/05/30 02:57:27;;;;;;;19.00;3.80;;;;;;;;;;5032063;28;20377;-72
2023/05/30 02:59:53;;;;;;;17.92;3.85;;;;;;;;;;5032034;28;20480;-72
2023/05/30 03:02:19;;;;;;;15.10;3.88;;;;;;;;;;5031490;28;20045;-72
2023/05/30 03:04:46;;;;;;;14.43;3.70;;;;;;;;;;5030995;28;20106;-72
2023/05/30 03:07:18;;;;;;;15.43;3.63;;;;;;;;;;5024642;28;20081;-71
2023/05/30 03:09:45;;;;;;;12.85;4.05;;;;;;;;;;5012140;28;20056;-72
2023/05/30 03:12:11;;;;;;;14.98;3.85;;;;;;;;;;5012221;28;20085;-72
2023/05/30 03:14:37;;;;;;;11.52;3.47;;;;;;;;;;5012030;28;20049;-72
2023/05/30 03:17:03;;;;;;;14.68;4.00;;;;;;;;;;5014998;28;20077;-72
2023/05/30 03:19:30;;;;;;;16.27;4.60;;;;;;;;;;5031505;28;20064;-71
2023/05/30 03:21:56;;;;;;;14.82;4.20;;;;;;;;;;5016956;28;20491;-72
2023/05/30 03:24:23;;;;;;;17.15;4.30;;;;;;;;;;5049373;28;20044;-72
2023/05/30 03:26:49;;;;;;;15.90;3.83;;;;;;;;;;5031556;28;20129;-72
2023/05/30 03:29:16;;;;;;;14.55;3.90;;;;;;;;;;5030804;28;20085;-72
2023/05/30 03:31:43;;;;;;;17.88;4.43;;;;;;;;;;5031392;28;20514;-72
2023/05/30 03:34:09;;;;;;;20.33;4.75;;;;;;;;;;5029021;28;20046;-71
2023/05/30 03:36:35;;;;;;;18.20;4.30;;;;;;;;;;5040927;28;20056;-72
2023/05/30 03:39:01;;;;;;;16.25;4.35;;;;;;;;;;5022473;28;20057;-72
2023/05/30 03:41:27;;;;;;;17.35;4.90;;;;;;;;;;5040666;28;20112;-72
2023/05/30 03:43:53;;;;;;;16.38;4.47;;;;;;;;;;5034558;28;20044;-71
2023/05/30 03:46:21;;;;;;;14.32;4.40;;;;;;;;;;5035341;28;20100;-72
2023/05/30 03:48:47;;;;;;;16.33;4.32;;;;;;;;;;5035489;28;20496;-72
2023/05/30 03:51:13;;;;;;;15.30;4.20;;;;;;;;;;5034341;28;20096;-71
2023/05/30 03:53:39;;;;;;;13.88;4.03;;;;;;;;;;5035574;28;20041;-72
2023/05/30 03:56:06;;;;;;;16.38;4.03;;;;;;;;;;5034685;28;20078;-72
2023/05/30 03:58:32;;;;;;;17.70;4.13;;;;;;;;;;5035636;28;20041;-72
2023/05/30 04:01:00;;;;;;;18.25;4.65;;;;;;;;;;5033441;28;20049;-72
2023/05/30 04:03:28;;;;;;;18.10;4.40;;;;;;;;;;5035554;28;20045;-72
2023/05/30 04:05:55;;;;;;;14.50;4.43;;;;;;;;;;5035238;28;20411;-72
2023/05/30 04:08:28;;;;;;;14.52;4.00;;;;;;;;;;5025914;28;20065;-72
2023/05/30 04:10:54;;;;;;;15.23;4.25;;;;;;;;;;5035075;28;20054;-72
2023/05/30 04:13:20;;;;;;;16.38;4.03;;;;;;;;;;5033353;28;20054;-72
2023/05/30 04:15:46;;;;;;;14.48;4.03;;;;;;;;;;5035044;28;20061;-72
2023/05/30 04:18:12;;;;;;;13.77;3.85;;;;;;;;;;5034479;28;20183;-72
2023/05/30 04:20:38;;;;;;;18.27;4.20;;;;;;;;;;5034115;28;20049;-72
2023/05/30 04:23:04;;;;;;;20.15;4.45;;;;;;;;;;5034995;28;20055;-71
2023/05/30 04:25:30;;;;;;;16.13;4.18;;;;;;;;;;5034344;28;20073;-71
2023/05/30 04:27:58;;;;;;;18.13;4.68;;;;;;;;;;5035398;28;20045;-71
2023/05/30 04:30:24;;;;;;;18.85;4.53;;;;;;;;;;5033725;28;20042;-72
2023/05/30 04:32:50;;;;;;;19.02;4.53;;;;;;;;;;5034870;28;20041;-72
2023/05/30 04:35:16;;;;;;;15.57;4.20;;;;;;;;;;5034589;28;20411;-72
2023/05/30 04:37:44;;;;;;;16.25;4.15;;;;;;;;;;5034339;28;20052;-72
2023/05/30 04:40:13;;;;;;;17.58;4.30;;;;;;;;;;5033700;28;20050;-72
2023/05/30 04:42:41;;;;;;;12.85;3.53;;;;;;;;;;5032179;28;20041;-71
2023/05/30 04:45:07;;;;;;;17.65;4.00;;;;;;;;;;5031597;28;20112;-71
2023/05/30 04:47:34;;;;;;;15.82;4.05;;;;;;;;;;5033007;28;20065;-72
2023/05/30 04:50:01;;;;;;;19.73;4.10;;;;;;;;;;5033620;28;20045;-72
2023/05/30 04:52:27;;;;;;;19.85;4.50;;;;;;;;;;5032511;28;20041;-72
2023/05/30 04:54:53;;;;;;;17.80;3.95;;;;;;;;;;5033531;28;20115;-72
2023/05/30 04:57:20;;;;;;;14.73;3.80;;;;;;;;;;5027485;28;20040;-71
2023/05/30 04:59:46;;;;;;;15.98;3.90;;;;;;;;;;5034362;28;20053;-71
2023/05/30 05:02:12;;;;;;;17.73;4.95;;;;;;;;;;5034121;28;20356;-72
2023/05/30 05:04:39;;;;;;;16.30;3.85;;;;;;;;;;5043743;28;20048;-72
2023/05/30 05:07:05;;;;;;;17.58;4.63;;;;;;;;;;5045860;28;20559;-72
2023/05/30 05:09:31;;;;;;;23.33;4.80;;;;;;;;;;5034274;28;20423;-71
2023/05/30 05:11:57;;;;;;;17.33;3.90;;;;;;;;;;5033893;28;20089;-71
2023/05/30 05:14:23;;;;;;;18.13;4.22;;;;;;;;;;5031710;28;20695;-72
2023/05/30 05:16:50;;;;;;;21.80;3.72;;;;;;;;;;5028413;28;20547;-72
2023/05/30 05:19:16;;;;;;;14.70;4.28;;;;;;;;;;5033528;28;20052;-72
2023/05/30 05:21:42;;;;;;;14.00;3.50;;;;;;;;;;5031526;28;20049;-72
2023/05/30 05:24:08;;;;;;;15.73;3.97;;;;;;;;;;5032536;28;20090;-72
2023/05/30 05:26:34;;;;;;;15.95;3.95;;;;;;;;;;5033439;28;20060;-72
2023/05/30 05:29:00;;;;;;;14.38;4.57;;;;;;;;;;5033779;28;20057;-72
2023/05/30 05:31:27;;;;;;;17.88;3.97;;;;;;;;;;5033811;28;20050;-72
2023/05/30 05:33:53;;;;;;;15.65;3.70;;;;;;;;;;5033626;28;20049;-72
2023/05/30 05:36:20;;;;;;;14.73;3.72;;;;;;;;;;5033766;28;20046;-72
2023/05/30 05:38:46;;;;;;;15.10;3.70;;;;;;;;;;5021555;28;20042;-72
2023/05/30 05:41:12;;;;;;;17.75;3.92;;;;;;;;;;5022919;28;20561;-72
2023/05/30 05:43:38;;;;;;;14.18;3.67;;;;;;;;;;5033480;28;20041;-72
2023/05/30 05:46:04;;;;;;;15.18;3.55;;;;;;;;;;5033369;28;20057;-72
2023/05/30 05:48:30;;;;;;;11.68;3.35;;;;;;;;;;5033470;28;20049;-71
2023/05/30 05:50:56;;;;;;;11.20;2.72;;;;;;;;;;5032711;28;20387;-70
2023/05/30 05:53:23;;;;;;;10.90;3.00;;;;;;;;;;5014309;28;20049;-72
2023/05/30 05:55:49;;;;;;;9.70;3.10;;;;;;;;;;5030919;28;20041;-72
2023/05/30 05:58:15;;;;;;;11.57;2.78;;;;;;;;;;5033045;28;20128;-72
2023/05/30 06:00:41;;;;;;;13.35;3.40;;;;;;;;;;5049380;28;20036;-72
2023/05/30 06:03:07;;;;;;;17.67;3.47;;;;;;;;;;5032424;28;20048;-71
2023/05/30 06:05:33;;;;;;;11.70;2.80;;;;;;;;;;5012826;28;20515;-72
2023/05/30 06:07:59;;;;;;;14.80;3.20;;;;;;;;;;5026141;28;20506;-71
2023/05/30 06:10:25;;;;;;;10.65;3.30;;;;;;;;;;5024490;28;20065;-72
2023/05/30 06:12:52;;;;;;;12.27;3.33;;;;;;;;;;5012342;28;20380;-72
2023/05/30 06:15:18;;;;;;;9.32;2.72;;;;;;;;;;5030314;28;20522;-72
2023/05/30 06:17:44;;;;;;;12.50;3.10;;;;;;;;;;5028944;28;20132;-72
2023/05/30 06:20:10;;;;;;;15.32;3.92;;;;;;;;;;5024795;28;20049;-72
2023/05/30 06:22:36;;;;;;;13.90;3.30;;;;;;;;;;5026904;28;20041;-71
2023/05/30 06:25:02;;;;;;;12.65;3.10;;;;;;;;;;5032861;28;20038;-72
2023/05/30 06:27:28;;;;;;;9.52;2.80;;;;;;;;;;5032859;28;20041;-72
2023/05/30 06:29:54;;;;;;;11.98;2.92;;;;;;;;;;5032701;28;20037;-71
2023/05/30 06:32:20;;;;;;;10.57;2.85;;;;;;;;;;5033354;28;20100;-72
2023/05/30 06:34:46;;;;;;;8.20;2.60;;;;;;;;;;5032243;28;20483;-72
2023/05/30 06:37:13;;;;;;;11.27;3.00;;;;;;;;;;5029124;28;20038;-72
2023/05/30 06:39:39;;;;;;;11.43;2.88;;;;;;;;;;5032544;28;20060;-72
2023/05/30 06:42:06;;;;;;;9.15;2.65;;;;;;;;;;5030892;28;20554;-71
2023/05/30 06:44:32;;;;;;;16.60;3.47;;;;;;;;;;5026182;28;20054;-72
2023/05/30 06:46:58;;;;;;;11.73;2.63;;;;;;;;;;5011206;28;20069;-72
2023/05/30 06:49:24;;;;;;;11.23;3.40;;;;;;;;;;5012409;28;20099;-72
2023/05/30 06:51:50;;;;;;;11.80;3.28;;;;;;;;;;5012119;28;20042;-72
2023/05/30 06:54:16;;;;;;;14.48;3.60;;;;;;;;;;5011499;28;20173;-71
2023/05/30 06:56:42;;;;;;;9.63;2.95;;;;;;;;;;5011655;28;20104;-71
2023/05/30 06:59:08;;;;;;;13.25;3.58;;;;;;;;;;5010438;28;20041;-71
2023/05/30 07:01:34;;;;;;;12.68;3.70;;;;;;;;;;5004807;28;20437;-72
2023/05/30 07:04:00;;;;;;;10.20;3.20;;;;;;;;;;5009798;28;20403;-71
2023/05/30 07:06:26;;;;;;;11.80;3.67;;;;;;;;;;5009897;28;20065;-72
2023/05/30 07:08:52;;;;;;;11.43;3.50;;;;;;;;;;5006431;28;20096;-71
2023/05/30 07:11:19;;;;;;;14.18;3.03;;;;;;;;;;5009326;28;20140;-71
2023/05/30 07:13:45;;;;;;;12.45;3.20;;;;;;;;;;5008256;28;20085;-71
2023/05/30 07:16:11;;;;;;;9.63;3.30;;;;;;;;;;5009102;28;20041;-71
2023/05/30 07:18:37;;;;;;;13.27;3.10;;;;;;;;;;5008271;28;20051;-71
2023/05/30 07:21:03;;;;;;;10.85;3.55;;;;;;;;;;5011971;28;20045;-72
2023/05/30 07:23:29;;;;;;;10.43;3.25;;;;;;;;;;5010569;28;20129;-71
2023/05/30 07:25:55;;;;;;;9.70;3.20;;;;;;;;;;5021151;28;20479;-71
2023/05/30 07:28:22;;;;;;;17.55;3.90;;;;;;;;;;5027850;28;20057;-71
2023/05/30 07:30:48;;;;;;;9.73;3.20;;;;;;;;;;5007113;28;20491;-71
2023/05/30 07:33:14;;;;;;;11.82;2.90;;;;;;;;;;5012047;28;20050;-72
2023/05/30 07:35:41;;;;;;;8.95;3.30;;;;;;;;;;5012009;28;20116;-71
2023/05/30 07:40:44;;;;;;;9.63;3.67;;;;;;;;;;5520466;22;19975;-81
2023/05/30 07:43:10;;;;;;;13.75;3.53;;;;;;;;;;5034142;28;20103;-83
2023/05/30 07:45:36;;;;;;;15.07;3.50;;;;;;;;;;5045476;28;20045;-83
2023/05/30 07:48:05;;;;;;;11.23;3.50;;;;;;;;;;5058059;28;20048;-82
2023/05/30 07:50:34;;;;;;;14.32;3.88;;;;;;;;;;5022072;28;20537;-83
2023/05/30 07:53:00;;;;;;;15.80;3.85;;;;;;;;;;5053446;28;20085;-82
2023/05/30 07:55:26;;;;;;;12.60;3.88;;;;;;;;;;5060285;28;20037;-83
2023/05/30 07:57:52;;;;;;;12.20;3.13;;;;;;;;;;5032153;28;20049;-83
2023/05/30 08:00:19;;;;;;;15.52;3.50;;;;;;;;;;5047463;28;20131;-84
2023/05/30 08:02:46;;;;;;;11.50;3.97;;;;;;;;;;5041853;28;20045;-84
2023/05/30 08:05:12;;;;;;;10.55;3.85;;;;;;;;;;5059343;28;20045;-84
2023/05/30 08:07:38;;;;;;;13.77;3.70;;;;;;;;;;5053827;28;20515;-83
2023/05/30 08:10:07;;;;;;;14.88;3.58;;;;;;;;;;5040494;28;20041;-83
2023/05/30 08:12:33;;;;;;;14.27;3.45;;;;;;;;;;5060607;28;20049;-82
2023/05/30 08:14:59;;;;;;;13.40;3.30;;;;;;;;;;5058645;28;20067;-81
2023/05/30 08:17:29;;;;;;;14.57;4.25;;;;;;;;;;5055283;28;20087;-85
2023/05/30 08:19:55;;;;;;;12.88;3.58;;;;;;;;;;5058213;28;20037;-82
2023/05/30 08:22:24;;;;;;;11.43;3.25;;;;;;;;;;5042568;28;20412;-82
2023/05/30 08:24:54;;;;;;;9.40;2.78;;;;;;;;;;5058222;28;20052;-83
2023/05/30 08:27:21;;;;;;;9.10;2.88;;;;;;;;;;5057728;28;20164;-82
2023/05/30 08:29:49;;;;;;;8.85;2.80;;;;;;;;;;5061150;28;20045;-84
2023/05/30 08:32:16;;;;;;;8.90;2.80;;;;;;;;;;5063296;28;20110;-84
2023/05/30 08:34:43;;;;;;;13.88;3.55;;;;;;;;;;5057746;28;20099;-83
2023/05/30 08:37:09;;;;;;;9.30;2.72;;;;;;;;;;5063669;28;20132;-83
2023/05/30 08:39:35;;;;;;;10.93;3.10;;;;;;;;;;5057705;28;20041;-84
2023/05/30 08:42:01;;;;;;;8.65;2.78;;;;;;;;;;5036876;28;20084;-83
2023/05/30 08:44:28;;;;;;;8.48;3.20;;;;;;;;;;5039571;28;20055;-85
2023/05/30 08:46:55;;;;;;;11.05;3.13;;;;;;;;;;5036380;28;20124;-85
2023/05/30 08:49:22;;;;;;;9.82;3.25;;;;;;;;;;5040043;28;20042;-85
2023/05/30 08:51:48;;;;;;;8.80;2.92;;;;;;;;;;5025037;28;20052;-84
2023/05/30 08:54:20;;;;;;;7.40;2.63;;;;;;;;;;5022587;28;20056;-85
2023/05/30 08:56:46;;;;;;;;;;;;;;;;;;5025789;28;20095;-84
2023/05/30 08:59:13;;;;;;;13.05;3.05;;;;;;;;;;5019651;28;19925;-83
2023/05/30 09:01:39;;;;;;;7.13;2.60;;;;;;;;;;5044241;28;20045;-82
2023/05/30 09:04:07;;;;;;;6.97;2.55;;;;;;;;;;5043035;28;20037;-83
2023/05/30 09:06:36;;;;;;;7.25;2.60;;;;;;;;;;5024729;28;20457;-81
2023/05/30 09:09:03;;;;;;;10.32;2.83;;;;;;;;;;5041139;28;20052;-82
2023/05/30 09:11:29;;;;;;;10.00;2.75;;;;;;;;;;5043039;28;20083;-82
2023/05/30 09:13:56;;;;;;;8.55;3.03;;;;;;;;;;5043840;28;20049;-82
2023/05/30 09:16:22;;;;;;;13.90;2.70;;;;;;;;;;5013259;28;20046;-82
2023/05/30 09:18:48;;;;;;;7.03;2.35;;;;;;;;;;5039557;28;20053;-82
2023/05/30 09:21:15;;;;;;;6.32;2.00;;;;;;;;;;5042097;28;20484;-81
2023/05/30 09:23:42;;;;;;;4.57;1.60;;;;;;;;;;5047062;28;20125;-81
2023/05/30 09:26:13;;;;;;;6.10;1.70;;;;;;;;;;5047162;28;20049;-83
2023/05/30 09:28:39;;;;;;;6.03;1.80;;;;;;;;;;5040764;28;20052;-81
2023/05/30 09:31:10;;;;;;;6.07;1.65;;;;;;;;;;5042811;28;20364;-82
2023/05/30 09:33:50;;;;;;;4.75;1.88;;;;;;;;;;5021192;28;20095;-82
2023/05/30 09:36:20;;;;;;;4.50;1.80;;;;;;;;;;5032634;28;20041;-82
2023/05/30 09:39:04;;;;;;;5.47;2.00;;;;;;;;;;5043205;28;20048;-82
2023/05/30 09:41:30;;;;;;;6.30;1.92;;;;;;;;;;5038033;28;20104;-81
2023/05/30 09:43:56;;;;;;;6.07;2.10;;;;;;;;;;5041528;28;20135;-82
2023/05/30 09:46:23;;;;;;;5.50;1.83;;;;;;;;;;5042778;28;20120;-84
2023/05/30 09:48:49;;;;;;;6.63;1.88;;;;;;;;;;5042836;28;20044;-84
2023/05/30 09:51:16;;;;;;;5.18;1.70;;;;;;;;;;5042822;28;20063;-82
2023/05/30 09:53:54;;;;;;;6.15;1.95;;;;;;;;;;5040881;28;20068;-83
2023/05/30 09:56:21;;;;;;;3.80;1.45;;;;;;;;;;5043385;28;20065;-83
2023/05/30 09:58:47;;;;;;;4.07;1.30;;;;;;;;;;5039625;28;20472;-83
2023/05/30 10:01:16;;;;;;;4.50;1.20;;;;;;;;;;5042918;28;20048;-83
2023/05/30 10:03:43;;;;;;;4.07;1.20;;;;;;;;;;5037011;28;20046;-83
2023/05/30 10:06:13;;;;;;;5.50;1.30;;;;;;;;;;5041739;28;20049;-83
2023/05/30 10:08:41;;;;;;;4.18;1.30;;;;;;;;;;5036203;28;20045;-82
2023/05/30 10:11:08;;;;;;;4.18;1.10;;;;;;;;;;5042669;28;20153;-82
2023/05/30 10:13:34;;;;;;;4.50;1.20;;;;;;;;;;5041033;28;20061;-83
2023/05/30 10:16:01;;;;;;;6.03;1.20;;;;;;;;;;5040701;28;20067;-83
2023/05/30 10:18:28;;;;;;;4.65;1.20;;;;;;;;;;5042621;28;20041;-84
2023/05/30 10:20:54;;;;;;;3.78;0.90;;;;;;;;;;5043380;28;20049;-82
2023/05/30 10:23:20;;;;;;;3.85;1.05;;;;;;;;;;5043553;28;20041;-82
2023/05/30 10:25:50;;;;;;;4.95;1.30;;;;;;;;;;5041807;28;20045;-82
2023/05/30 10:28:18;;;;;;;3.58;1.35;;;;;;;;;;5043424;28;20045;-81
2023/05/30 10:30:44;;;;;;;2.72;1.23;;;;;;;;;;5038280;28;20434;-80
2023/05/30 10:33:12;;;;;;;3.85;1.08;;;;;;;;;;5035912;28;20107;-81
2023/05/30 10:35:38;;;;;;;6.32;1.40;;;;;;;;;;5043882;28;20041;-81
2023/05/30 10:38:06;;;;;;;3.50;1.30;;;;;;;;;;5041046;28;20446;-83
2023/05/30 10:40:51;;;;;;;3.80;1.40;;;;;;;;;;5030107;28;20065;-82
2023/05/30 10:43:23;;;;;;;3.97;1.13;;;;;;;;;;5023355;28;20050;-82
2023/05/30 10:46:08;;;;;;;2.97;1.27;;;;;;;;;;5023902;28;20053;-83
2023/05/30 10:48:53;;;;;;;4.15;1.40;;;;;;;;;;5032045;28;20059;-82
2023/05/30 10:51:20;;;;;;;3.33;1.13;;;;;;;;;;5042320;28;20050;-82
2023/05/30 10:53:47;;;;;;;3.97;1.30;;;;;;;;;;5041890;28;20120;-83
2023/05/30 10:56:32;;;;;;;3.78;1.52;;;;;;;;;;5034407;28;20037;-83
2023/05/30 10:59:00;;;;;;;3.83;1.50;;;;;;;;;;5037309;28;20150;-83
2023/05/30 11:01:27;;;;;;;4.38;1.40;;;;;;;;;;5019617;28;20072;-82
2023/05/30 11:03:57;;;;;;;6.18;1.88;;;;;;;;;;5039059;28;20041;-80
2023/05/30 11:06:24;;;;;;;4.73;1.60;;;;;;;;;;5042055;28;20049;-81
2023/05/30 11:08:52;;;;;;;3.50;1.55;;;;;;;;;;5041052;28;20087;-81
2023/05/30 11:11:19;;;;;;;3.55;1.35;;;;;;;;;;5041123;28;20046;-82
2023/05/30 11:13:46;;;;;;;4.72;1.40;;;;;;;;;;5040532;28;20107;-82
2023/05/30 11:16:23;;;;;;;4.13;1.85;;;;;;;;;;5034655;28;20403;-82
2023/05/30 11:18:53;;;;;;;4.78;1.48;;;;;;;;;;5039330;28;20061;-83
2023/05/30 11:21:38;;;;;;;4.90;1.50;;;;;;;;;;5022889;28;20045;-81
2023/05/30 11:24:04;;;;;;;5.60;1.48;;;;;;;;;;5022296;28;20064;-81
2023/05/30 11:26:49;;;;;;;3.63;1.63;;;;;;;;;;5041756;28;20041;-82
2023/05/30 11:29:28;;;;;;;4.72;1.65;;;;;;;;;;5023386;28;20042;-81
2023/05/30 11:31:54;;;;;;;3.88;1.80;;;;;;;;;;5010458;28;20045;-81
2023/05/30 11:34:22;;;;;;;5.28;1.95;;;;;;;;;;5040357;28;20055;-82
2023/05/30 11:36:48;;;;;;;6.10;1.60;;;;;;;;;;5042344;28;20550;-82
2023/05/30 11:39:15;;;;;;;5.80;1.80;;;;;;;;;;5042623;28;20069;-81
2023/05/30 11:41:41;;;;;;;4.53;2.10;;;;;;;;;;5042701;28;20060;-82
2023/05/30 11:44:11;;;;;;;5.93;1.98;;;;;;;;;;5021909;28;20038;-82
2023/05/30 11:46:37;;;;;;;3.60;1.70;;;;;;;;;;5033637;28;20113;-82
2023/05/30 11:49:07;;;;;;;4.38;1.75;;;;;;;;;;5037761;28;20072;-80
2023/05/30 11:51:33;;;;;;;4.55;1.90;;;;;;;;;;5040247;28;20121;-81
2023/05/30 11:53:59;;;;;;;4.88;2.10;;;;;;;;;;5039321;28;20179;-81
2023/05/30 11:56:34;;;;;;;5.03;1.92;;;;;;;;;;5040719;28;20450;-82
2023/05/30 11:59:00;;;;;;;5.05;1.80;;;;;;;;;;5022645;28;20123;-82
2023/05/30 12:01:26;;;;;;;4.68;1.67;;;;;;;;;;5044704;28;20042;-81
2023/05/30 12:03:55;;;;;;;3.85;1.77;;;;;;;;;;5045106;28;20045;-81
2023/05/30 12:06:22;;;;;;;4.18;1.60;;;;;;;;;;5028395;28;20045;-82
2023/05/30 12:08:48;;;;;;;3.88;1.73;;;;;;;;;;5045110;28;20049;-81
2023/05/30 12:11:14;;;;;;;3.50;1.70;;;;;;;;;;5045156;28;20408;-82
2023/05/30 12:13:40;;;;;;;2.92;1.45;;;;;;;;;;5043780;28;20049;-81
2023/05/30 12:16:07;;;;;;;4.10;1.63;;;;;;;;;;5044113;28;20046;-82
2023/05/30 12:18:35;;;;;;;3.22;1.50;;;;;;;;;;5041541;28;20072;-81
2023/05/30 12:21:01;;;;;;;4.43;1.60;;;;;;;;;;5043859;28;20060;-82
2023/05/30 12:23:27;;;;;;;4.15;1.75;;;;;;;;;;5043196;28;20052;-82
2023/05/30 12:25:54;;;;;;;4.28;1.50;;;;;;;;;;5044418;28;20053;-83
2023/05/30 12:28:20;;;;;;;4.18;1.55;;;;;;;;;;5025055;28;20132;-83
2023/05/30 12:30:46;;;;;;;3.60;1.70;;;;;;;;;;5028681;28;20515;-83
2023/05/30 12:33:13;;;;;;;4.50;1.83;;;;;;;;;;5042136;28;20069;-83
2023/05/30 12:35:40;;;;;;;4.97;1.90;;;;;;;;;;5042425;28;20056;-83
2023/05/30 12:38:06;;;;;;;5.60;1.73;;;;;;;;;;5037605;28;20045;-81
2023/05/30 12:40:33;;;;;;;6.57;2.03;;;;;;;;;;5034904;28;20068;-84
2023/05/30 12:42:59;;;;;;;3.55;1.50;;;;;;;;;;5036675;28;20053;-84
2023/05/30 12:45:25;;;;;;;4.05;1.50;;;;;;;;;;5039580;28;20064;-82
2023/05/30 12:47:51;;;;;;;4.30;1.80;;;;;;;;;;5041955;28;20068;-83
2023/05/30 12:50:18;;;;;;;3.95;1.40;;;;;;;;;;5020979;28;20477;-83
2023/05/30 12:52:44;;;;;;;4.03;1.40;;;;;;;;;;5038602;28;20049;-83
2023/05/30 12:55:12;;;;;;;5.03;1.40;;;;;;;;;;5024644;28;20384;-82
2023/05/30 12:57:38;;;;;;;5.43;1.30;;;;;;;;;;5039352;28;20057;-84
2023/05/30 13:00:09;;;;;;;2.92;1.15;;;;;;;;;;5043620;28;20045;-82
2023/05/30 13:02:35;;;;;;;4.05;1.30;;;;;;;;;;5032952;28;20407;-82
2023/05/30 13:05:01;;;;;;;3.45;1.40;;;;;;;;;;5035802;28;20460;-83
2023/05/30 13:07:28;;;;;;;3.42;1.30;;;;;;;;;;5044205;28;20433;-83
2023/05/30 13:09:54;;;;;;;5.30;1.48;;;;;;;;;;5038449;28;20050;-83
2023/05/30 13:12:20;;;;;;;4.32;1.48;;;;;;;;;;5025101;28;20465;-83
2023/05/30 13:14:47;;;;;;;2.63;1.10;;;;;;;;;;5024467;28;20085;-83
2023/05/30 13:17:13;;;;;;;3.20;1.70;;;;;;;;;;5036261;28;20068;-83
2023/05/30 13:19:39;;;;;;;4.47;1.70;;;;;;;;;;5039939;28;20050;-83
2023/05/30 13:22:07;;;;;;;4.05;1.40;;;;;;;;;;5042055;28;20045;-83
2023/05/30 13:24:36;;;;;;;4.03;1.13;;;;;;;;;;5026680;28;20483;-83
2023/05/30 13:27:02;;;;;;;3.60;1.33;;;;;;;;;;5042822;28;20049;-83
2023/05/30 13:29:28;;;;;;;3.67;1.30;;;;;;;;;;5044098;28;20046;-83
2023/05/30 13:31:54;;;;;;;3.53;1.15;;;;;;;;;;5033838;28;20050;-83
2023/05/30 13:34:21;;;;;;;3.58;1.40;;;;;;;;;;5028087;28;20042;-83
2023/05/30 13:36:47;;;;;;;4.50;1.52;;;;;;;;;;5043568;28;20407;-83
2023/05/30 13:39:13;;;;;;;5.07;1.40;;;;;;;;;;5039807;28;20034;-83
2023/05/30 13:41:39;;;;;;;3.90;1.90;;;;;;;;;;5043261;28;20141;-82
2023/05/30 13:44:05;;;;;;;3.67;1.70;;;;;;;;;;5044232;28;20045;-82
2023/05/30 13:46:31;;;;;;;5.10;1.90;;;;;;;;;;5044925;28;20427;-82
2023/05/30 13:48:57;;;;;;;3.78;1.92;;;;;;;;;;5047229;28;20054;-83
2023/05/30 13:51:24;;;;;;;6.22;1.90;;;;;;;;;;5028440;28;20464;-79
2023/05/30 13:53:50;;;;;;;3.78;1.58;;;;;;;;;;5026782;28;20064;-83
2023/05/30 13:56:16;;;;;;;5.85;2.10;;;;;;;;;;5045587;28;20049;-82
2023/05/30 13:58:43;;;;;;;5.15;1.85;;;;;;;;;;5046582;28;20160;-82
2023/05/30 14:01:09;;;;;;;24.13;4.43;;;;;;;;;;5042846;28;20073;-81
2023/05/30 14:03:36;;;;;;;6.60;2.08;;;;;;;;;;5043074;28;20046;-82
2023/05/30 14:06:02;;;;;;;17.90;3.38;;;;;;;;;;5046535;28;20053;-81
2023/05/30 14:08:28;;;;;;;5.00;2.10;;;;;;;;;;5037550;28;20120;-82
2023/05/30 14:10:55;;;;;;;5.25;1.92;;;;;;;;;;5042208;28;20038;-82
2023/05/30 14:13:22;;;;;;;4.07;1.98;;;;;;;;;;5039112;28;20110;-81
2023/05/30 14:15:48;;;;;;;5.43;2.28;;;;;;;;;;5039227;28;20059;-82
2023/05/30 14:18:14;;;;;;;7.50;1.95;;;;;;;;;;5037698;28;20046;-80
2023/05/30 14:20:40;;;;;;;5.35;1.88;;;;;;;;;;5036160;28;20056;-82
2023/05/30 14:23:07;;;;;;;4.43;1.73;;;;;;;;;;5015856;28;20048;-82
2023/05/30 14:25:33;;;;;;;4.93;1.75;;;;;;;;;;5033852;28;20042;-83
2023/05/30 14:27:59;;;;;;;5.82;1.80;;;;;;;;;;5042155;28;20054;-84
2023/05/30 14:30:25;;;;;;;6.10;2.08;;;;;;;;;;5037740;28;20045;-82
2023/05/30 14:32:52;;;;;;;3.97;1.80;;;;;;;;;;5023542;28;20050;-82
2023/05/30 14:35:18;;;;;;;4.50;1.92;;;;;;;;;;5025809;28;20149;-82
2023/05/30 14:37:44;;;;;;;4.75;1.75;;;;;;;;;;5011257;28;20172;-81
2023/05/30 14:40:12;;;;;;;3.90;1.50;;;;;;;;;;5028256;28;20072;-81